createdAt,value
2018-06-23T00:00:50.234Z,0
2018-06-23T00:02:00.328Z,0
2018-06-23T00:03:10.150Z,0
2018-06-23T00:04:20.255Z,0
2018-06-23T00:05:30.337Z,0
2018-06-23T00:06:40.434Z,0
2018-06-23T00:07:50.512Z,0
2018-06-23T00:09:00.646Z,0
2018-06-23T00:10:10.809Z,0
2018-06-23T00:11:20.877Z,0
2018-06-23T00:12:30.966Z,0
2018-06-23T00:13:40.772Z,0
2018-06-23T00:14:50.833Z,0
2018-06-23T00:16:00.658Z,0
2018-06-23T00:17:10.745Z,0
2018-06-23T00:18:20.822Z,0
2018-06-23T00:19:30.627Z,0
2018-06-23T00:20:40.500Z,0
2018-06-23T00:21:50.311Z,0
2018-06-23T00:23:00.375Z,0
2018-06-23T00:24:10.444Z,0
2018-06-23T00:25:20.512Z,0
2018-06-23T00:26:30.077Z,0
2018-06-23T00:27:40.154Z,0
2018-06-23T00:28:49.966Z,0
2018-06-23T00:30:00.036Z,0
2018-06-23T00:31:10.130Z,0
2018-06-23T00:32:20.190Z,0
2018-06-23T00:33:30.259Z,0
2018-06-23T00:34:40.067Z,0
2018-06-23T00:35:49.886Z,0
2018-06-23T00:36:59.701Z,0
2018-06-23T00:38:09.790Z,0
2018-06-23T00:39:19.855Z,0
2018-06-23T00:40:29.933Z,0
2018-06-23T00:41:40.006Z,0
2018-06-23T00:42:50.090Z,0
2018-06-23T00:43:59.904Z,0
2018-06-23T00:45:09.996Z,0
2018-06-23T00:46:20.078Z,0
2018-06-23T00:47:30.398Z,0
2018-06-23T00:48:39.948Z,0
2018-06-23T00:49:50.024Z,0
2018-06-23T00:50:59.838Z,0
2018-06-23T00:52:09.646Z,0
2018-06-23T00:53:19.474Z,0
2018-06-23T00:54:29.539Z,0
2018-06-23T00:55:39.669Z,0
2018-06-23T00:56:49.735Z,0
2018-06-23T00:57:59.533Z,0
2018-06-23T00:59:09.615Z,0
2018-06-23T01:00:19.477Z,0
2018-06-23T01:01:29.544Z,0
2018-06-23T01:02:39.628Z,0
2018-06-23T01:03:49.692Z,0
2018-06-23T01:04:59.252Z,0
2018-06-23T01:06:09.312Z,0
2018-06-23T01:07:19.425Z,0
2018-06-23T01:08:29.233Z,0
2018-06-23T01:09:39.287Z,0
2018-06-23T01:10:49.344Z,0
2018-06-23T01:11:59.138Z,0
2018-06-23T01:13:08.936Z,0
2018-06-23T01:14:19.013Z,0
2018-06-23T01:15:28.816Z,0
2018-06-23T01:16:38.887Z,0
2018-06-23T01:17:48.684Z,0
2018-06-23T01:18:58.745Z,0
2018-06-23T01:20:08.310Z,0
2018-06-23T01:21:18.376Z,0
2018-06-23T01:22:28.458Z,0
2018-06-23T01:23:38.520Z,0
2018-06-23T01:24:48.328Z,0
2018-06-23T01:25:58.622Z,0
2018-06-23T01:27:08.711Z,0
2018-06-23T01:28:18.788Z,0
2018-06-23T01:29:28.877Z,0
2018-06-23T01:30:38.941Z,0
2018-06-23T01:31:49.039Z,0
2018-06-23T01:32:59.113Z,0
2018-06-23T01:34:09.199Z,0
2018-06-23T01:35:19.260Z,0
2018-06-23T01:36:29.062Z,0
2018-06-23T01:37:38.873Z,0
2018-06-23T01:38:48.956Z,0
2018-06-23T01:39:59.033Z,0
2018-06-23T01:41:09.088Z,0
2018-06-23T01:42:19.160Z,0
2018-06-23T01:43:29.242Z,0
2018-06-23T01:44:39.443Z,0
2018-06-23T01:45:49.505Z,0
2018-06-23T01:46:59.604Z,0
2018-06-23T01:48:09.677Z,0
2018-06-23T01:49:19.779Z,0
2018-06-23T01:50:29.842Z,0
2018-06-23T01:51:39.401Z,0
2018-06-23T01:52:49.472Z,0
2018-06-23T01:53:59.534Z,0
2018-06-23T01:55:09.333Z,0
2018-06-23T01:56:19.155Z,0
2018-06-23T01:57:29.216Z,0
2018-06-23T01:58:38.752Z,0
2018-06-23T01:59:48.858Z,0
2018-06-23T02:00:58.928Z,0
2018-06-23T02:02:08.983Z,0
2018-06-23T02:03:19.040Z,0
2018-06-23T02:04:28.836Z,0
2018-06-23T02:05:38.900Z,0
2018-06-23T02:06:48.969Z,0
2018-06-23T02:07:59.033Z,0
2018-06-23T02:09:09.094Z,0
2018-06-23T02:10:18.891Z,0
2018-06-23T02:11:28.959Z,0
2018-06-23T02:12:38.774Z,0
2018-06-23T02:13:48.856Z,0
2018-06-23T02:14:58.925Z,0
2018-06-23T02:16:08.998Z,0
2018-06-23T02:17:18.274Z,0
2018-06-23T02:18:28.065Z,0
2018-06-23T02:19:38.021Z,0
2018-06-23T02:20:47.567Z,0
2018-06-23T02:21:57.623Z,0
2018-06-23T02:23:07.704Z,4
2018-06-23T02:24:17.772Z,4
2018-06-23T02:25:27.844Z,0
2018-06-23T02:26:37.653Z,4
2018-06-23T02:27:47.505Z,4
2018-06-23T02:28:57.572Z,4
2018-06-23T02:30:07.666Z,4
2018-06-23T02:31:17.492Z,4
2018-06-23T02:32:27.555Z,4
2018-06-23T02:33:37.359Z,4
2018-06-23T02:34:47.165Z,8
2018-06-23T02:35:57.247Z,4
2018-06-23T02:37:07.335Z,4
2018-06-23T02:38:17.423Z,8
2018-06-23T02:39:27.521Z,8
2018-06-23T02:40:37.327Z,8
2018-06-23T02:41:47.411Z,12
2018-06-23T02:42:57.484Z,12
2018-06-23T02:44:07.573Z,16
2018-06-23T02:45:17.653Z,20
2018-06-23T02:46:27.731Z,24
2018-06-23T02:47:37.552Z,28
2018-06-23T02:48:47.628Z,32
2018-06-23T02:49:57.437Z,36
2018-06-23T02:51:07.521Z,40
2018-06-23T02:52:17.401Z,44
2018-06-23T02:53:27.504Z,48
2018-06-23T02:54:37.577Z,60
2018-06-23T02:55:47.386Z,64
2018-06-23T02:56:57.450Z,76
2018-06-23T02:58:07.271Z,80
2018-06-23T02:59:17.355Z,92
2018-06-23T03:00:27.415Z,104
2018-06-23T03:01:37.232Z,112
2018-06-23T03:02:47.323Z,128
2018-06-23T03:34:24.399Z,488
2018-06-23T03:35:34.463Z,504
2018-06-23T03:36:44.529Z,516
2018-06-23T03:37:54.585Z,516
2018-06-23T03:39:04.643Z,552
2018-06-23T03:40:14.449Z,600
2018-06-23T03:41:24.236Z,612
2018-06-23T03:42:34.035Z,616
2018-06-23T03:43:43.634Z,612
2018-06-23T03:44:53.836Z,616
2018-06-23T03:46:03.678Z,624
2018-06-23T03:47:14.025Z,652
2018-06-23T03:48:24.098Z,660
2018-06-23T03:49:34.158Z,676
2018-06-23T03:50:44.223Z,672
2018-06-23T03:51:54.040Z,664
2018-06-23T03:53:04.105Z,692
2018-06-23T03:54:14.167Z,724
2018-06-23T03:55:24.254Z,740
2018-06-23T03:56:34.079Z,756
2018-06-23T03:57:43.888Z,764
2018-06-23T03:58:53.699Z,776
2018-06-23T04:00:03.796Z,772
2018-06-23T04:01:13.875Z,780
2018-06-23T04:02:23.683Z,796
2018-06-23T04:03:33.762Z,840
2018-06-23T04:04:43.629Z,904
2018-06-23T04:05:53.718Z,972
2018-06-23T04:07:03.514Z,1036
2018-06-23T04:08:13.685Z,1064
2018-06-23T04:09:23.541Z,1056
2018-06-23T04:10:33.618Z,1060
2018-06-23T04:11:43.823Z,1068
2018-06-23T04:12:53.911Z,1076
2018-06-23T04:14:03.990Z,1072
2018-06-23T04:15:14.065Z,1064
2018-06-23T04:16:24.129Z,1020
2018-06-23T04:17:34.209Z,980
2018-06-23T04:18:43.776Z,956
2018-06-23T04:19:53.312Z,936
2018-06-23T04:21:03.373Z,940
2018-06-23T04:22:13.435Z,992
2018-06-23T04:23:23.518Z,1076
2018-06-23T04:24:33.595Z,1336
2018-06-23T04:25:43.672Z,7340
2018-06-23T04:26:53.756Z,11032
2018-06-23T04:28:03.557Z,2680
2018-06-23T04:29:13.695Z,7992
2018-06-23T04:30:23.574Z,8668
2018-06-23T04:31:33.657Z,10280
2018-06-23T04:32:43.741Z,3424
2018-06-23T04:33:53.816Z,1824
2018-06-23T04:35:04.026Z,1648
2018-06-23T04:36:14.104Z,1628
2018-06-23T04:37:24.174Z,1720
2018-06-23T04:38:33.984Z,1884
2018-06-23T04:39:43.788Z,1712
2018-06-23T04:40:53.649Z,1624
2018-06-23T04:42:03.204Z,1652
2018-06-23T04:43:13.004Z,1692
2018-06-23T04:44:23.183Z,1728
2018-06-23T04:45:32.725Z,1788
2018-06-23T04:46:42.284Z,1868
2018-06-23T04:47:52.107Z,1968
2018-06-23T04:49:01.921Z,2044
2018-06-23T04:50:12.048Z,2052
2018-06-23T04:51:21.854Z,2088
2018-06-23T04:52:31.657Z,2132
2018-06-23T04:53:41.738Z,2180
2018-06-23T04:54:51.545Z,2228
2018-06-23T04:56:01.624Z,2272
2018-06-23T04:57:11.702Z,2316
2018-06-23T04:58:21.240Z,2320
2018-06-23T04:59:31.372Z,2300
2018-06-23T05:00:41.627Z,2252
2018-06-23T05:01:51.742Z,2216
2018-06-23T05:03:01.546Z,2216
2018-06-23T05:04:11.613Z,2228
2018-06-23T05:05:21.689Z,2216
2018-06-23T05:06:31.767Z,2184
2018-06-23T05:07:41.835Z,2132
2018-06-23T05:08:51.902Z,2116
2018-06-23T05:10:01.986Z,2120
2018-06-23T05:11:12.064Z,2156
2018-06-23T05:12:21.707Z,2196
2018-06-23T05:13:31.635Z,2232
2018-06-23T05:14:41.712Z,2268
2018-06-23T05:15:51.241Z,2296
2018-06-23T05:17:01.063Z,2308
2018-06-23T05:18:11.158Z,2288
2018-06-23T05:19:20.978Z,2240
2018-06-23T05:20:31.042Z,2188
2018-06-23T05:21:41.128Z,2144
2018-06-23T05:22:51.195Z,2128
2018-06-23T05:24:01.023Z,2124
2018-06-23T05:25:10.835Z,2152
2018-06-23T05:26:20.906Z,2200
2018-06-23T05:27:30.991Z,2252
2018-06-23T05:28:41.063Z,2292
2018-06-23T05:29:51.129Z,2336
2018-06-23T05:31:01.242Z,2392
2018-06-23T05:32:11.334Z,2444
2018-06-23T05:33:21.151Z,2488
2018-06-23T05:34:30.972Z,2512
2018-06-23T05:35:41.045Z,2536
2018-06-23T05:36:51.182Z,2560
2018-06-23T05:38:01.269Z,2568
2018-06-23T05:39:11.065Z,2632
2018-06-23T05:40:20.611Z,2568
2018-06-23T05:41:30.707Z,2572
2018-06-23T05:42:40.578Z,2776
2018-06-23T05:43:50.720Z,2596
2018-06-23T05:45:00.685Z,2644
2018-06-23T05:46:10.775Z,2548
2018-06-23T05:47:20.862Z,2556
2018-06-23T05:48:30.952Z,2584
2018-06-23T05:49:40.759Z,2648
2018-06-23T05:50:50.833Z,2856
2018-06-23T05:52:00.913Z,2976
2018-06-23T05:53:11.010Z,3160
2018-06-23T05:54:20.809Z,3596
2018-06-23T05:55:30.893Z,5196
2018-06-23T05:56:41.217Z,4528
2018-06-23T05:57:51.301Z,4164
2018-06-23T05:59:01.351Z,4224
2018-06-23T06:00:11.436Z,4588
2018-06-23T06:01:21.511Z,7160
2018-06-23T06:02:31.588Z,5644
2018-06-23T06:03:41.660Z,10824
2018-06-23T06:04:51.737Z,5152
2018-06-23T06:06:01.801Z,4028
2018-06-23T06:07:12.117Z,4544
2018-06-23T06:08:21.965Z,7744
2018-06-23T06:09:32.030Z,4644
2018-06-23T06:10:42.100Z,6340
2018-06-23T06:11:52.151Z,11928
2018-06-23T06:13:02.287Z,11040
2018-06-23T06:14:12.121Z,7248
2018-06-23T06:15:22.204Z,6760
2018-06-23T06:16:32.274Z,6148
2018-06-23T06:17:42.369Z,4832
2018-06-23T06:18:52.177Z,4408
2018-06-23T06:20:02.245Z,4012
2018-06-23T06:21:12.060Z,3952
2018-06-23T06:22:22.152Z,3968
2018-06-23T06:23:31.965Z,4104
2018-06-23T06:24:41.777Z,4308
2018-06-23T06:25:51.906Z,4552
2018-06-23T06:27:02.005Z,4764
2018-06-23T06:28:12.092Z,4664
2018-06-23T06:29:22.155Z,4424
2018-06-23T06:30:32.339Z,4332
2018-06-23T06:31:42.420Z,4372
2018-06-23T06:32:52.484Z,4400
2018-06-23T06:34:02.024Z,4492
2018-06-23T06:35:12.146Z,4664
2018-06-23T06:36:22.225Z,4880
2018-06-23T06:37:32.343Z,5116
2018-06-23T06:38:42.426Z,5252
2018-06-23T06:39:52.494Z,5400
2018-06-23T06:41:02.566Z,5508
2018-06-23T06:42:12.665Z,5576
2018-06-23T06:43:22.736Z,5480
2018-06-23T06:44:32.860Z,5364
2018-06-23T06:45:43.028Z,5296
2018-06-23T06:46:53.111Z,5328
2018-06-23T06:48:03.207Z,5348
2018-06-23T06:49:13.007Z,5256
2018-06-23T06:50:22.815Z,5152
2018-06-23T06:51:32.909Z,5096
2018-06-23T06:52:42.997Z,5124
2018-06-23T06:53:53.093Z,5004
2018-06-23T06:55:03.190Z,4872
2018-06-23T06:56:13.260Z,4740
2018-06-23T06:57:23.541Z,4612
2018-06-23T06:58:33.617Z,4620
2018-06-23T06:59:43.698Z,4620
2018-06-23T07:00:53.829Z,4588
2018-06-23T07:02:03.942Z,4608
2018-06-23T07:03:14.019Z,4760
2018-06-23T07:04:24.107Z,4908
2018-06-23T07:05:34.185Z,5052
2018-06-23T07:06:44.267Z,5276
2018-06-23T07:07:54.126Z,5348
2018-06-23T07:09:04.404Z,5308
2018-06-23T07:10:14.234Z,5404
2018-06-23T07:11:24.327Z,5488
2018-06-23T07:12:34.407Z,5588
2018-06-23T07:13:44.472Z,5668
2018-06-23T07:14:54.281Z,5620
2018-06-23T07:16:04.361Z,5736
2018-06-23T07:17:14.434Z,5588
2018-06-23T07:18:24.526Z,5620
2018-06-23T07:19:34.608Z,5908
2018-06-23T07:20:44.478Z,5588
2018-06-23T07:21:54.605Z,5552
2018-06-23T07:23:04.713Z,5216
2018-06-23T07:24:15.222Z,5088
2018-06-23T07:25:25.410Z,4996
2018-06-23T07:26:35.543Z,5016
2018-06-23T07:27:45.629Z,5176
2018-06-23T07:28:55.722Z,5948
2018-06-23T07:30:05.803Z,5940
2018-06-23T07:31:15.916Z,7052
2018-06-23T07:32:26.008Z,5892
2018-06-23T07:33:36.097Z,6052
2018-06-23T07:34:46.589Z,6312
2018-06-23T07:35:56.926Z,7056
2018-06-23T07:37:07.067Z,7748
2018-06-23T07:38:17.150Z,7244
2018-06-23T07:39:27.254Z,6792
2018-06-23T07:40:37.456Z,6284
2018-06-23T07:41:47.651Z,5288
2018-06-23T07:42:57.471Z,4744
2018-06-23T07:44:07.554Z,4200
2018-06-23T07:45:17.365Z,3828
2018-06-23T07:46:27.456Z,3576
2018-06-23T07:47:37.541Z,3564
2018-06-23T07:48:47.648Z,3964
2018-06-23T07:49:57.713Z,4792
2018-06-23T07:51:07.812Z,5540
2018-06-23T07:52:17.905Z,5828
2018-06-23T07:53:27.734Z,7604
2018-06-23T07:54:37.814Z,5440
2018-06-23T07:55:47.884Z,5044
2018-06-23T07:56:57.719Z,4232
2018-06-23T07:58:07.813Z,3872
2018-06-23T07:59:17.893Z,3712
2018-06-23T08:00:27.719Z,3576
2018-06-23T08:01:38.006Z,3504
2018-06-23T08:02:48.265Z,3460
2018-06-23T08:03:58.349Z,3400
2018-06-23T08:05:08.469Z,3280
2018-06-23T08:06:18.552Z,3256
2018-06-23T08:07:28.680Z,3252
2018-06-23T08:08:38.780Z,3160
2018-06-23T08:09:48.589Z,2976
2018-06-23T08:10:58.675Z,2848
2018-06-23T08:12:08.755Z,2748
2018-06-23T08:13:18.654Z,2652
2018-06-23T08:14:28.735Z,2512
2018-06-23T08:15:38.816Z,2412
2018-06-23T08:16:48.916Z,2216
2018-06-23T08:17:58.713Z,1932
2018-06-23T08:19:08.808Z,1668
2018-06-23T08:20:18.967Z,1440
2018-06-23T08:21:29.072Z,1276
2018-06-23T08:22:39.147Z,1152
2018-06-23T08:23:49.230Z,1100
2018-06-23T08:24:59.262Z,1072
2018-06-23T08:26:09.221Z,1048
2018-06-23T08:27:19.278Z,1028
2018-06-23T08:28:29.383Z,972
2018-06-23T08:29:39.471Z,1004
2018-06-23T08:30:49.568Z,1108
2018-06-23T08:31:59.699Z,1248
2018-06-23T08:33:09.904Z,1448
2018-06-23T08:34:19.972Z,1696
2018-06-23T08:35:30.050Z,1960
2018-06-23T08:36:40.155Z,2232
2018-06-23T08:37:50.142Z,2464
2018-06-23T08:39:00.486Z,2692
2018-06-23T08:40:10.569Z,2896
2018-06-23T08:41:20.653Z,3056
2018-06-23T08:42:30.485Z,3332
2018-06-23T08:43:40.750Z,3568
2018-06-23T08:44:50.908Z,3732
2018-06-23T08:46:00.744Z,3936
2018-06-23T08:47:10.561Z,4156
2018-06-23T08:48:20.441Z,4440
2018-06-23T08:49:30.525Z,4764
2018-06-23T08:50:40.604Z,5084
2018-06-23T08:51:50.674Z,5616
2018-06-23T08:53:00.249Z,6668
2018-06-23T08:54:10.065Z,6360
2018-06-23T08:55:20.143Z,6144
2018-06-23T08:56:29.964Z,7416
2018-06-23T08:57:39.774Z,4628
2018-06-23T08:58:49.870Z,4012
2018-06-23T08:59:59.947Z,3360
2018-06-23T09:01:10.025Z,2980
2018-06-23T09:02:20.121Z,2760
2018-06-23T09:03:29.947Z,2612
2018-06-23T09:04:40.098Z,2348
2018-06-23T09:05:50.198Z,2028
2018-06-23T09:07:00.289Z,1712
2018-06-23T09:08:10.372Z,1544
2018-06-23T09:09:20.460Z,1512
2018-06-23T09:10:30.632Z,1640
2018-06-23T09:11:40.704Z,1788
2018-06-23T09:12:50.785Z,1928
2018-06-23T09:14:00.370Z,2096
2018-06-23T09:15:10.468Z,2368
2018-06-23T09:16:20.553Z,2508
2018-06-23T09:17:30.633Z,2492
2018-06-23T09:18:40.745Z,2444
2018-06-23T09:19:50.460Z,2256
2018-06-23T09:21:00.280Z,1904
2018-06-23T09:22:10.365Z,1608
2018-06-23T09:23:20.461Z,1424
2018-06-23T09:24:30.265Z,1340
2018-06-23T09:25:40.506Z,1352
2018-06-23T09:26:50.356Z,1492
2018-06-23T09:28:00.172Z,1768
2018-06-23T09:29:10.301Z,2108
2018-06-23T09:30:20.389Z,2544
2018-06-23T09:31:30.477Z,3224
2018-06-23T09:32:40.303Z,4068
2018-06-23T09:33:50.391Z,4776
2018-06-23T09:35:00.482Z,5272
2018-06-23T09:36:10.572Z,5636
2018-06-23T09:37:20.389Z,6004
2018-06-23T09:38:30.451Z,7452
2018-06-23T09:39:40.549Z,6472
2018-06-23T09:40:50.637Z,6128
2018-06-23T09:42:00.726Z,6072
2018-06-23T09:43:10.818Z,6128
2018-06-23T09:44:20.932Z,6124
2018-06-23T09:45:31.014Z,6084
2018-06-23T09:46:41.140Z,6156
2018-06-23T09:47:51.243Z,6348
2018-06-23T09:49:01.332Z,6380
2018-06-23T09:50:11.440Z,6088
2018-06-23T09:51:21.271Z,7660
2018-06-23T09:52:31.425Z,6084
2018-06-23T09:53:41.515Z,8272
2018-06-23T09:54:51.593Z,8408
2018-06-23T09:56:01.649Z,8216
2018-06-23T09:57:11.211Z,6852
2018-06-23T09:58:21.312Z,9692
2018-06-23T09:59:31.412Z,8092
2018-06-23T10:00:41.524Z,6664
2018-06-23T10:01:51.602Z,6520
2018-06-23T10:03:01.723Z,6252
2018-06-23T10:04:11.650Z,6044
2018-06-23T10:05:21.739Z,6044
2018-06-23T10:06:31.571Z,6052
2018-06-23T10:07:41.685Z,5580
2018-06-23T10:08:51.510Z,5188
2018-06-23T10:10:01.344Z,4948
2018-06-23T10:11:11.419Z,4972
2018-06-23T10:12:21.527Z,5304
2018-06-23T10:13:31.625Z,5876
2018-06-23T10:14:41.458Z,6288
2018-06-23T10:15:51.636Z,6864
2018-06-23T10:17:01.710Z,6196
2018-06-23T10:18:11.522Z,7544
2018-06-23T10:19:21.363Z,10500
2018-06-23T10:20:31.182Z,10876
2018-06-23T10:21:41.211Z,11340
2018-06-23T10:22:51.047Z,7892
2018-06-23T10:24:00.861Z,8028
2018-06-23T10:25:10.952Z,6640
2018-06-23T10:26:20.749Z,6332
2018-06-23T10:27:30.601Z,8688
2018-06-23T10:28:40.508Z,7880
2018-06-23T10:29:50.660Z,8476
2018-06-23T10:31:00.765Z,5628
2018-06-23T10:32:10.594Z,5188
2018-06-23T10:33:20.709Z,5164
2018-06-23T10:34:30.790Z,5148
2018-06-23T10:35:40.868Z,5036
2018-06-23T10:36:50.972Z,4952
2018-06-23T10:38:00.877Z,4936
2018-06-23T10:39:11.077Z,5080
2018-06-23T10:40:21.145Z,5132
2018-06-23T10:41:31.206Z,5168
2018-06-23T10:42:41.304Z,5332
2018-06-23T10:43:51.391Z,5432
2018-06-23T10:45:01.480Z,6428
2018-06-23T10:46:11.600Z,4932
2018-06-23T10:47:21.703Z,4764
2018-06-23T10:48:31.778Z,4548
2018-06-23T10:49:41.588Z,4812
2018-06-23T10:50:51.676Z,8308
2018-06-23T10:52:01.763Z,5056
2018-06-23T10:53:11.846Z,5192
2018-06-23T10:54:21.925Z,8732
2018-06-23T10:55:31.742Z,5992
2018-06-23T10:56:41.310Z,6264
2018-06-23T10:57:51.675Z,5972
2018-06-23T10:59:01.931Z,5724
2018-06-23T11:00:12.070Z,5604
2018-06-23T11:01:22.204Z,5568
2018-06-23T11:02:32.300Z,5524
2018-06-23T11:03:42.395Z,5568
2018-06-23T11:04:53.075Z,5700
2018-06-23T11:06:03.140Z,5852
2018-06-23T11:07:13.004Z,5880
2018-06-23T11:08:23.133Z,5888
2018-06-23T11:09:33.221Z,5944
2018-06-23T11:10:43.309Z,6156
2018-06-23T11:11:53.422Z,6500
2018-06-23T11:13:03.249Z,7768
2018-06-23T11:14:13.350Z,10088
2018-06-23T11:15:23.454Z,7484
2018-06-23T11:16:33.536Z,7744
2018-06-23T11:17:43.362Z,7256
2018-06-23T11:18:53.181Z,7028
2018-06-23T11:20:03.319Z,10672
2018-06-23T11:21:13.409Z,6372
2018-06-23T11:22:23.523Z,6068
2018-06-23T11:23:33.348Z,5196
2018-06-23T11:24:43.950Z,4792
2018-06-23T11:25:53.796Z,4820
2018-06-23T11:27:03.903Z,6864
2018-06-23T11:28:13.730Z,5256
2018-06-23T11:29:23.826Z,5856
2018-06-23T11:30:33.947Z,5700
2018-06-23T11:31:44.096Z,5440
2018-06-23T11:32:54.185Z,5016
2018-06-23T11:34:04.021Z,4596
2018-06-23T11:35:14.131Z,4304
2018-06-23T11:36:23.946Z,4392
2018-06-23T11:37:33.849Z,4808
2018-06-23T11:38:43.944Z,5196
2018-06-23T11:39:54.062Z,5272
2018-06-23T11:41:04.176Z,5144
2018-06-23T11:42:14.281Z,4872
2018-06-23T11:43:24.402Z,4348
2018-06-23T11:44:34.252Z,3976
2018-06-23T11:45:44.102Z,3652
2018-06-23T11:46:54.238Z,3476
2018-06-23T11:48:04.370Z,3424
2018-06-23T11:49:14.016Z,3516
2018-06-23T11:50:23.852Z,3584
2018-06-23T11:51:33.929Z,3624
2018-06-23T11:52:44.042Z,3624
2018-06-23T11:53:54.187Z,3640
2018-06-23T11:55:04.289Z,3636
2018-06-23T11:56:14.383Z,3544
2018-06-23T11:57:24.486Z,3592
2018-06-23T11:58:34.326Z,3848
2018-06-23T11:59:44.143Z,7352
2018-06-23T12:00:54.241Z,8724
2018-06-23T12:02:04.524Z,5632
2018-06-23T12:03:14.827Z,5352
2018-06-23T12:04:25.070Z,8872
2018-06-23T12:05:34.905Z,4024
2018-06-23T12:06:44.722Z,3264
2018-06-23T12:07:54.788Z,2580
2018-06-23T12:09:04.882Z,2140
2018-06-23T12:10:15.014Z,1800
2018-06-23T12:11:24.846Z,1544
2018-06-23T12:12:34.935Z,1360
2018-06-23T12:13:44.788Z,1308
2018-06-23T12:14:54.615Z,1356
2018-06-23T12:16:04.679Z,1548
2018-06-23T12:17:14.495Z,1964
2018-06-23T12:18:24.638Z,2612
2018-06-23T12:19:34.448Z,3396
2018-06-23T12:20:44.547Z,4088
2018-06-23T12:21:54.389Z,4652
2018-06-23T12:23:04.485Z,5372
2018-06-23T12:24:14.609Z,6012
2018-06-23T12:25:24.763Z,5196
2018-06-23T12:26:34.904Z,5560
2018-06-23T12:27:45.033Z,4732
2018-06-23T12:28:55.105Z,4396
2018-06-23T12:30:05.244Z,4372
2018-06-23T12:31:15.081Z,4484
2018-06-23T12:32:25.182Z,4624
2018-06-23T12:33:35.304Z,4772
2018-06-23T12:34:45.178Z,4796
2018-06-23T12:35:55.309Z,4840
2018-06-23T12:37:05.631Z,5016
2018-06-23T12:38:15.770Z,5208
2018-06-23T12:39:25.874Z,5424
2018-06-23T12:40:35.717Z,5608
2018-06-23T12:41:46.398Z,5884
2018-06-23T12:42:56.594Z,7792
2018-06-23T12:44:06.678Z,5976
2018-06-23T12:45:16.791Z,6228
2018-06-23T12:46:26.615Z,5656
2018-06-23T12:47:36.449Z,5200
2018-06-23T12:48:46.510Z,4824
2018-06-23T12:49:56.616Z,4532
2018-06-23T12:51:06.711Z,4408
2018-06-23T12:52:16.544Z,4468
2018-06-23T12:53:26.691Z,4804
2018-06-23T12:54:36.522Z,5248
2018-06-23T12:55:46.614Z,5572
2018-06-23T12:56:56.440Z,5552
2018-06-23T12:58:06.592Z,5548
2018-06-23T12:59:16.782Z,5344
2018-06-23T13:00:26.890Z,5000
2018-06-23T13:01:37.001Z,4916
2018-06-23T13:02:47.100Z,5988
2018-06-23T13:03:56.719Z,7892
2018-06-23T13:05:06.884Z,7512
2018-06-23T13:06:17.022Z,7124
2018-06-23T13:07:27.131Z,7900
2018-06-23T13:08:36.705Z,4996
2018-06-23T13:09:46.777Z,5640
2018-06-23T13:10:56.599Z,7304
2018-06-23T13:12:06.671Z,4668
2018-06-23T13:13:16.765Z,4344
2018-06-23T13:14:26.874Z,7736
2018-06-23T13:15:36.720Z,4352
2018-06-23T13:16:46.814Z,4576
2018-06-23T13:17:56.914Z,7644
2018-06-23T13:19:07.017Z,5960
2018-06-23T13:20:16.849Z,8704
2018-06-23T13:21:26.943Z,8488
2018-06-23T13:22:36.788Z,8348
2018-06-23T13:23:46.876Z,8332
2018-06-23T13:24:56.704Z,8596
2018-06-23T13:26:06.794Z,8776
2018-06-23T13:27:16.626Z,4960
2018-06-23T13:28:26.723Z,4732
2018-06-23T13:29:36.805Z,4732
2018-06-23T13:30:46.620Z,5212
2018-06-23T13:31:56.443Z,5612
2018-06-23T13:33:06.268Z,8044
2018-06-23T13:34:16.388Z,8516
2018-06-23T13:35:26.475Z,8532
2018-06-23T13:36:36.558Z,8288
2018-06-23T13:37:46.628Z,5020
2018-06-23T13:38:56.464Z,4496
2018-06-23T13:40:06.557Z,4432
2018-06-23T13:41:16.399Z,4292
2018-06-23T13:42:26.464Z,4100
2018-06-23T13:43:36.552Z,4004
2018-06-23T13:44:46.638Z,7492
2018-06-23T13:45:56.785Z,7848
2018-06-23T13:47:07.020Z,5620
2018-06-23T13:48:16.933Z,8456
2018-06-23T13:49:27.031Z,8564
2018-06-23T13:50:37.097Z,8628
2018-06-23T13:51:47.199Z,8812
2018-06-23T13:52:57.034Z,8800
2018-06-23T13:54:07.135Z,8480
2018-06-23T13:55:17.248Z,8564
2018-06-23T13:56:27.329Z,8688
2018-06-23T13:57:37.428Z,8708
2018-06-23T13:58:47.527Z,8540
2018-06-23T13:59:57.629Z,8052
2018-06-23T14:01:07.741Z,7764
2018-06-23T14:02:17.824Z,7428
2018-06-23T14:03:27.560Z,6404
2018-06-23T14:04:37.396Z,4724
2018-06-23T14:05:47.479Z,4200
2018-06-23T14:06:57.313Z,4396
2018-06-23T14:08:07.387Z,4600
2018-06-23T14:09:17.465Z,4964
2018-06-23T14:10:27.568Z,5668
2018-06-23T14:11:37.678Z,4548
2018-06-23T14:12:47.768Z,3860
2018-06-23T14:13:57.597Z,3824
2018-06-23T14:15:07.695Z,3644
2018-06-23T14:16:17.777Z,3744
2018-06-23T14:17:27.345Z,5052
2018-06-23T14:18:37.435Z,3672
2018-06-23T14:19:47.510Z,3544
2018-06-23T14:20:57.413Z,3408
2018-06-23T14:22:07.246Z,3644
2018-06-23T14:23:17.334Z,4236
2018-06-23T14:24:27.470Z,3656
2018-06-23T14:25:37.583Z,3124
2018-06-23T14:26:47.653Z,3028
2018-06-23T14:27:57.468Z,2924
2018-06-23T14:29:07.557Z,2832
2018-06-23T14:30:17.682Z,2848
2018-06-23T14:31:28.445Z,2940
2018-06-23T14:32:38.926Z,3012
2018-06-23T14:33:48.742Z,3088
2018-06-23T14:34:58.829Z,3132
2018-06-23T14:36:08.898Z,3488
2018-06-23T14:37:18.983Z,3852
2018-06-23T14:38:29.069Z,3792
2018-06-23T14:39:39.157Z,3804
2018-06-23T14:40:48.994Z,3880
2018-06-23T14:41:59.091Z,5276
2018-06-23T14:43:08.933Z,5108
2018-06-23T14:44:19.040Z,4720
2018-06-23T14:45:29.122Z,3692
2018-06-23T14:46:38.931Z,3556
2018-06-23T14:47:49.022Z,4248
2018-06-23T14:48:59.098Z,4912
2018-06-23T14:50:09.232Z,4032
2018-06-23T14:51:19.321Z,4164
2018-06-23T14:52:29.413Z,5328
2018-06-23T14:53:39.489Z,5756
2018-06-23T14:54:49.597Z,5552
2018-06-23T14:55:59.727Z,5364
2018-06-23T14:57:09.560Z,5292
2018-06-23T14:58:19.650Z,5340
2018-06-23T14:59:29.817Z,4832
2018-06-23T15:00:38.943Z,5520
2018-06-23T15:01:48.780Z,4724
2018-06-23T15:02:58.886Z,5680
2018-06-23T15:04:08.989Z,5840
2018-06-23T15:05:18.809Z,5176
2018-06-23T15:06:28.626Z,5796
2018-06-23T15:07:38.699Z,5816
2018-06-23T15:08:48.774Z,5692
2018-06-23T15:09:58.884Z,5840
2018-06-23T15:11:08.709Z,5896
2018-06-23T15:12:18.803Z,5872
2018-06-23T15:13:28.364Z,5912
2018-06-23T15:14:38.445Z,5824
2018-06-23T15:15:48.573Z,4100
2018-06-23T15:16:58.650Z,5704
2018-06-23T15:18:08.731Z,5780
2018-06-23T15:19:18.901Z,3644
2018-06-23T15:20:28.968Z,3572
2018-06-23T15:21:39.081Z,3864
2018-06-23T15:22:49.194Z,5560
2018-06-23T15:23:59.294Z,5364
2018-06-23T15:25:09.453Z,5288
2018-06-23T15:26:19.526Z,5160
2018-06-23T15:27:29.629Z,5004
2018-06-23T15:28:39.704Z,4852
2018-06-23T15:29:49.516Z,4880
2018-06-23T15:30:59.610Z,4736
2018-06-23T15:32:09.703Z,4684
2018-06-23T15:33:19.796Z,4664
2018-06-23T15:34:29.620Z,4608
2018-06-23T15:35:39.717Z,4788
2018-06-23T15:36:49.830Z,2908
2018-06-23T15:37:59.641Z,2884
2018-06-23T15:39:09.484Z,2912
2018-06-23T15:40:19.061Z,4880
2018-06-23T15:41:28.888Z,4012
2018-06-23T15:42:38.982Z,2912
2018-06-23T15:43:49.075Z,2944
2018-06-23T15:44:59.176Z,4584
2018-06-23T15:46:08.999Z,4780
2018-06-23T15:47:19.258Z,3876
2018-06-23T15:48:29.403Z,3148
2018-06-23T15:49:39.485Z,3140
2018-06-23T15:50:49.578Z,3536
2018-06-23T15:51:59.649Z,3120
2018-06-23T15:53:09.963Z,2988
2018-06-23T15:54:20.260Z,4652
2018-06-23T15:55:30.343Z,4852
2018-06-23T15:56:40.424Z,4216
2018-06-23T15:57:50.231Z,4648
2018-06-23T15:59:00.327Z,4616
2018-06-23T16:00:10.472Z,4416
2018-06-23T16:01:20.572Z,4308
2018-06-23T16:02:30.789Z,4084
2018-06-23T16:03:41.071Z,3980
2018-06-23T16:04:51.182Z,3868
2018-06-23T16:06:01.298Z,3832
2018-06-23T16:07:11.392Z,3760
2018-06-23T16:08:21.507Z,3728
2018-06-23T16:09:31.622Z,3704
2018-06-23T16:10:41.455Z,3752
2018-06-23T16:11:51.317Z,3800
2018-06-23T16:13:01.416Z,3780
2018-06-23T16:14:11.532Z,3752
2018-06-23T16:15:21.380Z,3864
2018-06-23T16:16:31.473Z,4024
2018-06-23T16:17:41.581Z,4124
2018-06-23T16:18:51.663Z,4264
2018-06-23T16:20:01.753Z,4308
2018-06-23T16:21:11.577Z,4320